Highlands Peak, California Weather observations

Data are for observation ending at time listed.
 Day   Time    Ave.   Ave.  Ave.  Vector   Max.   Stn.    Total    Solar   Ave.  
  of    of     Air    Rel.  Wind   Wind    Wind   Baro.  Precip.   Rad.    Soil  
Year   Day     Temp.  Hum.  Speed  Dir.    Gust   Pres.                    Temp. 
2014   (PST)    F      %     mph   deg.    mph     mb.     in.     W/m2     F   
------------------------------------------------------------------------------
 303    1:50   71.0    22    4.0   165      6.2   929.8    0.00       0    65.2
 303    2:00   70.8    23    4.3   131      6.6   929.7    0.00       0    65.6
 303    2:10   69.5    24    3.6    96      5.3   929.6    0.00       0    65.9
 303    2:20   69.7    24    3.2    94      6.0   929.6    0.00       0    66.1
 303    2:30   69.9    24    2.8    72      4.3   929.5    0.00       0    66.2
 303    2:40   69.9    24    2.3    64      3.1   929.5    0.00       0    66.2
 303    2:50   69.6    24    1.9    61      2.9   929.4    0.00       0    66.2
 303    3:00   69.5    24    1.8    31      3.7   929.2    0.00       0    66.1
 303    3:10   69.1    24    4.4    81      6.6   929.1    0.00       0    66.1
 303    3:20   69.5    23    1.3    77      3.4   929.1    0.00       0    65.9
 303    3:30   69.9    24    1.0   280      2.2   929.1    0.00       0    65.9
 303    3:40   69.9    23    1.0   175      3.2   929.0    0.00       0    65.9
 303    3:50   69.7    23    2.3   189      4.2   929.1    0.00       0    65.8
 303    4:00   69.6    23    4.4   165      6.1   929.0    0.00       0    65.7
 303    4:10   69.6    22    4.6   156      6.4   929.0    0.00       0    65.1
 303    4:20   69.7    22    3.8   174      5.2   929.0    0.00       0    65.0
 303    4:30   68.9    24    2.2   275      3.2   929.1    0.00       0    65.3
 303    4:40   68.1    24    1.3   336      3.8   929.1    0.00       0    65.4
 303    4:50   68.1    22    3.0    91      4.0   929.1    0.00       0    65.5
 303    5:00   68.3    23    2.6   164      4.5   929.1    0.00       0    65.4
 303    5:10   67.8    25    3.1   214      4.1   929.2    0.00       0    65.4
 303    5:20   67.7    24    4.4   172      6.8   929.3    0.00       0    65.3
 303    5:30   67.4    25    3.6   174      6.4   929.3    0.00       0    65.2
 303    5:40   67.3    25    1.7   194      2.6   929.3    0.00       0    65.1
 303    5:50   67.0    26    1.2   305      2.6   929.3    0.00       0    65.0
 303    6:00   66.9    24    0.8    49      2.3   929.3    0.00       0    65.1
 303    6:10   66.7    26    0.3   282      1.0   929.4    0.00       0    65.0
 303    6:20   66.4    24    1.1    96      2.0   929.4    0.00       1    64.8
 303    6:30   65.9    24    3.2    73      4.1   929.3    0.00       3    64.9
 303    6:40   65.4    26    2.7   319      3.9   929.4    0.00      15    64.8
 303    6:50   63.7    28    2.8    12      5.1   929.4    0.00      37    64.7
 303    7:00   63.6    27    2.5    90      4.7   929.4    0.00      53    64.7
 303    7:10   64.7    26    3.8    65      7.0   929.4    0.00      89    64.6
 303    7:20   65.2    25    2.9    62      4.6   929.4    0.00     107    64.5
 303    7:30   67.1    24    0.6   307      1.9   929.6    0.00     235    64.4
 303    7:40   66.7    26    2.7   258      5.4   929.7    0.00     191    64.3
 303    7:50   64.5    29    1.8    93      4.1   929.8    0.00     179    64.3
 303    8:00   64.3    28    4.5    86      5.8   929.7    0.00     219    64.4
 303    8:10   65.1    28    1.8   212      4.2   929.8    0.00     370    64.3
 303    8:20   66.0    29    2.2   173      4.8   929.8    0.00     238    64.3
 303    8:30   65.3    30    4.0   131      5.1   929.7    0.00     268    64.3
 303    8:40   66.6    28    5.0   158      7.5   929.7    0.00     269    64.4
 303    8:50   67.8    28    4.3   192      7.1   929.7    0.00     316    64.4
 303    9:00   67.5    28    4.7   183      8.0   929.7    0.00     448    64.5
 303    9:10   68.1    26    5.9   154     10.0   929.6    0.00     339    64.5
 303    9:20   67.2    28    5.6   172      9.7   929.6    0.00     237    64.6
 303    9:30   66.0    31    6.8   157     10.2   929.6    0.00     267    64.7
 303    9:40   66.0    31    5.9   186      9.1   929.6    0.00     268    64.8
 303    9:50   66.0    32    4.5   174      8.6   929.6    0.00     416    64.9
 303   10:00   66.8    32    8.0   162     11.4   929.6    0.00     523    65.0
 303   10:10   66.5    33    7.2   163     12.9   929.6    0.00     400    65.0
 303   10:20   65.5    34    6.9   164     11.3   929.6    0.00     344    65.1
 303   10:30   65.0    35    6.1   172      9.9   929.7    0.00     315    65.2
 303   10:40   67.0    33    5.8   156     12.9   929.7    0.00     778    65.5
 303   10:50   71.1    28    6.8   162     14.0   929.6    0.00     840    65.6
 303   11:00   71.2    27    5.8   170     12.5   929.5    0.00     545    65.8
 303   11:10   69.9    30    4.5   177      8.2   929.5    0.00     394    66.0
 303   11:20   70.1    28    4.9   177      8.3   929.3    0.00     438    66.2
 303   11:30   69.6    26    3.9   184      9.0   929.2    0.00     344    66.4
 303   11:40   70.0    26    4.7   205      8.8   929.1    0.00     604    66.6
 303   11:50   72.0    26    4.0   216      8.5   929.1    0.00     543    66.8
 303   12:00   70.9    28    5.6   195      9.2   929.0    0.00     515    67.0
 303   12:10   71.2    26    4.9   210     11.5   929.0    0.00     545    67.2
 303   12:20   71.0    32    4.9   220     10.7   929.0    0.00     560    67.5
 303   12:30   66.3    45    7.5   187     14.3   929.1    0.00     566    67.7
 303   12:40   66.8    42    8.8   176     15.7   929.1    0.00     819    67.9
 303   12:50   65.5    45    8.0   146     14.8   929.0    0.00     685    68.2
 303   13:00   65.5    44    8.5   152     13.8   928.9    0.00     581    68.3
 303   13:10   63.6    49   12.3   146     21.2   928.9    0.00     416    68.3
 303   13:20   62.6    50   10.0   135     17.6   928.7    0.00     463    68.0
 303   13:30   64.0    43    6.6   144     10.4   928.5    0.00     416    68.1
 303   13:40   65.1    46    2.6   235      6.1   928.5    0.00     417    68.6
 303   13:50   64.3    48    5.7   198     10.9   928.6    0.00     350    69.0
 303   14:00   62.9    50    7.8   161     12.3   928.5    0.00     272    69.2
 303   14:10   62.0    50    8.8   146     13.1   928.5    0.00     218    69.3
 303   14:20   62.6    48    3.4   118      7.9   928.4    0.00     260    69.2
 303   14:30   64.2    45    3.1    89      7.3   928.4    0.00     325    69.5
 303   14:40   65.0    38    5.2   104      9.3   928.2    0.00     303    69.6
 303   14:50   65.2    21    8.9   135     19.6   928.3    0.00     159    69.5
 303   15:00   64.7    15   10.9   127     16.2   928.2    0.00     180    68.0
 303   15:10   65.6    13    6.6   120     10.7   928.2    0.00     237    68.1
 303   15:20   66.4    10    7.7   123     12.3   928.2    0.00     220    68.6
 303   15:30   67.3    10    5.3   154     12.1   928.2    0.00     294    68.9
 303   15:40   67.9    12    5.4   152      9.9   928.2    0.00     349    69.3
 303   15:50   67.7    13    7.0   150     12.6   928.0    0.00     288    69.6
 303   16:00   66.1    34    5.1   221     12.3   928.2    0.00     227    69.7
 303   16:10   61.1    66    3.2   222      6.4   928.2    0.00     136    69.8
 303   16:20   59.7    55    6.3   129     10.2   928.0    0.00      80    69.8
 303   16:30   61.1    39    7.5   135     10.2   927.8    0.00     143    69.3
 303   16:40   62.4    30    6.9   139     10.3   927.8    0.00      81    69.2
 303   16:50   61.5    29    8.5   133     12.1   927.6    0.00      31    68.7
 303   17:00   62.0    24    9.0   139     12.5   927.6    0.00      18    67.9
 303   17:10   61.8    24   10.8   128     15.1   927.5    0.00      24    67.5
 303   17:20   61.7    27   11.4   123     16.8   927.4    0.00       5    66.7
 303   17:30   62.4    33   11.4   129     15.2   927.4    0.00       1    66.3
 303   17:40   62.5    35    9.8   132     13.2   927.4    0.00       0    66.3
 303   17:50   62.6    36   12.7   137     17.3   927.2    0.00       0    65.8
 303   18:00   62.1    40   10.5   156     16.4   927.5    0.00       0    66.0
 303   18:10   61.5    45    7.1   166     11.8   927.8    0.00       0    67.1
 303   18:20   61.0    48    6.0   170     10.8   927.9    0.00       0    67.6
 303   18:30   60.0    49    7.1   149     11.8   927.9    0.00       0    67.5
 303   18:40   59.8    52    8.1   143     14.0   928.0    0.00       0    67.0
 303   18:50   60.2    57   12.9   142     17.9   927.8    0.00       0    66.1
 303   19:00   60.0    58   10.1   138     17.0   927.9    0.00       0    65.7
 303   19:10   59.9    60   11.3   143     16.9   928.0    0.00       0    65.6
 303   19:20   60.1    60   10.9   128     16.4   927.8    0.00       0    65.4
 303   19:30   60.1    60    9.6   130     14.8   927.7    0.00       0    65.5
 303   19:40   60.2    60   10.6   136     15.5   927.7    0.00       0    65.3
 303   19:50   60.0    62   10.2   143     15.2   927.9    0.00       0    65.2
 303   20:00   59.8    62   10.2   146     15.4   927.9    0.00       0    65.2
 303   20:10   59.3    64    9.8   141     14.1   927.8    0.00       0    65.2
 303   20:20   58.7    65   11.0   137     16.0   927.6    0.00       0    64.8
 303   20:30   58.4    66   13.1   129     18.4   927.4    0.00       0    64.4
 303   20:40   58.5    67   11.8   139     18.3   927.5    0.00       0    64.3
 303   20:50   58.6    67   10.8   144     16.5   927.6    0.00       0    64.3
 303   21:00   58.6    66   10.9   146     15.1   927.8    0.00       0    64.4
 303   21:10   58.8    66   12.0   144     17.8   927.8    0.00       0    64.3
 303   21:20   58.7    66   10.0   142     16.4   927.7    0.00       0    64.3
 303   21:30   57.0    73    4.5   172      9.0   927.7    0.00       0    64.9
 303   21:40   53.5    90    5.9   162     10.4   927.6    0.00       0    65.1
 303   21:50   52.7    95    6.2   173     10.4   927.7    0.00       0    65.4
 303   22:00   52.7    96    7.6   163     15.0   927.9    0.00       0    65.3
 303   22:10   52.7    96    9.5   154     16.4   927.9    0.00       0    64.9
 303   22:20   52.5    97   11.7   148     16.9   927.9    0.00       0    64.2
 303   22:30   52.4    97   13.2   138     20.2   927.6    0.00       0    63.6
 303   22:40   52.4    97   15.4   135     22.1   927.3    0.00       0    63.2
 303   22:50   52.5    97   16.3   134     23.8   927.2    0.00       0    62.7
 303   23:00   52.5    97   15.4   139     22.8   927.3    0.00       0    62.5
 303   23:10   52.9    97   15.4   142     24.3   927.5    0.00       0    62.5
 303   23:20   53.2    97   13.2   151     24.3   927.8    0.00       0    63.0
 303   23:30   53.1    96    9.6   153     20.1   927.8    0.00       0    63.4
 303   23:40   53.0    96   13.7   145     21.5   927.7    0.00       0    62.9
 303   23:50   53.1    95   11.9   147     19.2   927.7    0.00       0    62.7
 304    0:00   53.0    95   12.6   137     19.9   927.6    0.00       0    62.6
 304    0:10   52.8    96    9.1   146     14.8   927.6    0.00       0    62.8
 304    0:20   52.6    96   10.3   158     17.6   927.5    0.00       0    63.0
 304    0:30   52.4    97   11.7   152     19.2   927.5    0.00       0    62.7
 304    0:40   52.4    97   10.3   151     18.2   927.6    0.00       0    62.7
 304    0:50   52.4    97    9.8   161     15.8   927.7    0.00       0    63.0
 304    1:00   52.4    97    9.9   156     16.5   927.7    0.00       0    62.9
 304    1:10   52.3    97    9.6   151     14.5   927.5    0.00       0    62.7
 304    1:20   52.3    97    8.6   146     12.8   927.4    0.00       0    62.7
 304    1:30   52.1    97   10.1   147     15.7   927.3    0.00       0    62.4
 304    1:40   51.6    97   12.3   140     19.6   927.3    0.00       0    62.1

Return to Highlands Peak graphs page.


Western Regional Climate Center,wrcc@dri.edu